createdAt,value
2023-12-20T00:01:34.551Z,2.20
2023-12-20T00:04:05.029Z,2.07
2023-12-20T00:06:33.806Z,1.30
2023-12-20T00:09:02.463Z,2.00
2023-12-20T00:11:31.584Z,1.50
2023-12-20T00:14:01.030Z,2.07
2023-12-20T00:16:29.959Z,1.40
2023-12-20T00:18:58.662Z,2.37
2023-12-20T00:21:31.086Z,2.10
2023-12-20T00:24:00.186Z,1.63
2023-12-20T00:26:30.109Z,1.53
2023-12-20T00:28:59.239Z,1.70
2023-12-20T00:31:27.956Z,2.47
2023-12-20T00:34:03.639Z,2.80
2023-12-20T00:36:58.009Z,2.60
2023-12-20T00:39:26.655Z,2.73
2023-12-20T00:41:55.242Z,2.50
2023-12-20T00:44:27.471Z,2.23
2023-12-20T00:46:56.108Z,2.00
2023-12-20T00:49:25.020Z,2.30
2023-12-20T00:51:55.106Z,2.27
2023-12-20T00:54:26.058Z,2.10
2023-12-20T00:56:54.706Z,2.33
2023-12-20T00:59:23.370Z,2.40
2023-12-20T01:01:57.024Z,1.80
2023-12-20T01:04:26.909Z,2.37
2023-12-20T01:07:05.199Z,2.63
2023-12-20T01:09:41.367Z,2.40
2023-12-20T01:12:11.224Z,1.57
2023-12-20T01:14:41.881Z,2.00
2023-12-20T01:17:10.794Z,2.23
2023-12-20T01:19:39.601Z,2.20
2023-12-20T01:22:10.277Z,2.67
2023-12-20T01:24:39.034Z,2.60
2023-12-20T01:27:08.377Z,2.30
2023-12-20T01:29:37.209Z,2.77
2023-12-20T01:32:06.941Z,2.17
2023-12-20T01:34:36.283Z,2.23
2023-12-20T01:37:09.403Z,2.40
2023-12-20T01:39:39.658Z,1.67
2023-12-20T01:42:08.575Z,1.50
2023-12-20T01:44:37.182Z,2.30
2023-12-20T01:47:06.247Z,2.17
2023-12-20T01:49:35.872Z,2.20
2023-12-20T01:52:06.210Z,1.90
2023-12-20T01:54:35.163Z,1.90
2023-12-20T01:57:07.413Z,2.27
2023-12-20T01:59:37.771Z,2.50
2023-12-20T02:02:08.283Z,2.37
2023-12-20T02:04:51.183Z,2.37
2023-12-20T02:07:20.925Z,2.00
2023-12-20T02:09:49.961Z,1.90
2023-12-20T02:12:23.191Z,2.27
2023-12-20T02:14:52.399Z,2.30
2023-12-20T02:17:22.868Z,2.80
2023-12-20T02:19:52.104Z,2.77
2023-12-20T02:22:35.079Z,3.00
2023-12-20T02:25:05.737Z,3.10
2023-12-20T02:27:34.720Z,2.33
2023-12-20T02:30:04.461Z,2.33
2023-12-20T02:32:33.078Z,2.30
2023-12-20T02:35:02.129Z,2.73
2023-12-20T02:37:32.990Z,2.60
2023-12-20T02:40:02.288Z,2.60
2023-12-20T02:42:30.986Z,2.57
2023-12-20T02:44:59.588Z,2.50
2023-12-20T02:47:28.373Z,2.43
2023-12-20T02:49:57.243Z,2.73
2023-12-20T02:52:26.785Z,2.70
2023-12-20T02:54:56.984Z,2.63
2023-12-20T02:57:25.522Z,1.80
2023-12-20T02:59:54.234Z,2.47
2023-12-20T03:02:22.905Z,3.07
2023-12-20T03:04:52.250Z,2.83
2023-12-20T03:07:21.021Z,3.13
2023-12-20T03:10:16.259Z,3.17
2023-12-20T03:12:49.683Z,3.70
2023-12-20T03:15:20.125Z,3.80
2023-12-20T03:17:52.704Z,4.00
2023-12-20T03:20:24.236Z,4.07
2023-12-20T03:22:53.064Z,4.00
2023-12-20T03:25:24.925Z,3.13
2023-12-20T03:27:59.427Z,3.10
2023-12-20T03:30:28.347Z,3.07
2023-12-20T03:32:57.172Z,2.97
2023-12-20T03:35:26.638Z,2.40
2023-12-20T03:44:25.119Z,2.70
2023-12-20T03:46:54.615Z,2.30
2023-12-20T03:52:27.565Z,2.63
2023-12-20T03:54:56.763Z,2.50
2023-12-20T03:58:02.379Z,2.60
2023-12-20T04:00:31.475Z,2.60
2023-12-20T04:03:24.466Z,2.90
2023-12-20T04:06:34.067Z,2.37
2023-12-20T04:09:22.508Z,2.47
2023-12-20T04:12:11.920Z,2.20
2023-12-20T04:17:25.219Z,2.43
2023-12-20T04:19:54.276Z,2.60
2023-12-20T04:22:22.895Z,2.30
2023-12-20T04:24:51.435Z,1.73
2023-12-20T04:27:20.008Z,1.70
2023-12-20T04:29:49.872Z,1.93
2023-12-20T04:32:18.404Z,1.80
2023-12-20T04:34:46.900Z,1.93
2023-12-20T04:37:15.525Z,1.90
2023-12-20T04:39:44.168Z,1.90
2023-12-20T04:42:12.686Z,2.17
2023-12-20T04:44:41.319Z,2.00
2023-12-20T04:47:11.189Z,2.00
2023-12-20T04:49:39.823Z,2.70
2023-12-20T04:52:08.610Z,2.30
2023-12-20T04:54:37.123Z,2.73
2023-12-20T04:57:06.048Z,2.93
2023-12-20T04:59:34.630Z,3.23
2023-12-20T05:02:03.126Z,3.03
2023-12-20T05:04:33.148Z,3.30
2023-12-20T05:07:01.758Z,3.30
2023-12-20T05:09:30.309Z,3.20
2023-12-20T05:11:58.858Z,4.10
2023-12-20T05:14:28.164Z,3.80
2023-12-20T05:16:57.563Z,3.60
2023-12-20T05:19:26.398Z,3.33
2023-12-20T05:21:56.508Z,4.10
2023-12-20T05:24:24.996Z,3.87
2023-12-20T05:26:54.213Z,3.87
2023-12-20T05:29:23.130Z,4.03
2023-12-20T05:31:51.679Z,4.13
2023-12-20T05:34:20.488Z,4.37
2023-12-20T05:36:49.246Z,4.07
2023-12-20T05:39:19.129Z,3.80
2023-12-20T05:41:47.913Z,4.07
2023-12-20T05:44:16.693Z,4.27
2023-12-20T05:46:46.462Z,4.10
2023-12-20T05:49:15.306Z,5.03
2023-12-20T05:51:43.870Z,4.67
2023-12-20T05:54:12.490Z,4.97
2023-12-20T05:56:42.472Z,4.77
2023-12-20T05:59:11.002Z,5.30
2023-12-20T06:01:39.681Z,5.40
2023-12-20T06:04:08.463Z,5.40
2023-12-20T06:06:42.237Z,4.27
2023-12-20T06:09:10.839Z,4.90
2023-12-20T06:11:41.039Z,4.63
2023-12-20T06:14:09.660Z,4.47
2023-12-20T06:16:38.253Z,4.73
2023-12-20T06:19:06.951Z,4.50
2023-12-20T06:21:35.942Z,4.70
2023-12-20T06:24:04.901Z,5.57
2023-12-20T06:26:33.623Z,4.73
2023-12-20T06:29:03.752Z,5.00
2023-12-20T06:31:33.995Z,5.23
2023-12-20T06:34:02.909Z,4.93
2023-12-20T06:36:31.584Z,4.70
2023-12-20T06:39:00.256Z,4.60
2023-12-20T06:41:28.938Z,4.10
2023-12-20T06:43:57.792Z,3.13
2023-12-20T06:46:27.807Z,3.40
2023-12-20T06:48:56.405Z,3.70
2023-12-20T06:51:26.708Z,3.27
2023-12-20T06:53:55.402Z,2.77
2023-12-20T06:56:23.914Z,3.40
2023-12-20T06:58:52.455Z,2.80
2023-12-20T07:01:21.154Z,2.70
2023-12-20T07:03:51.325Z,2.13
2023-12-20T07:06:20.460Z,2.73
2023-12-20T07:08:49.024Z,2.53
2023-12-20T07:11:17.772Z,2.93
2023-12-20T07:13:46.753Z,3.57
2023-12-20T07:16:15.429Z,2.17
2023-12-20T07:18:43.983Z,2.63
2023-12-20T07:21:13.893Z,2.17
2023-12-20T07:23:42.881Z,1.50
2023-12-20T07:26:12.417Z,2.47
2023-12-20T07:28:41.758Z,1.90
2023-12-20T07:31:10.464Z,2.43
2023-12-20T07:33:40.091Z,1.60
2023-12-20T07:36:09.873Z,2.00
2023-12-20T07:38:39.735Z,2.07
2023-12-20T07:41:08.320Z,1.93
2023-12-20T07:43:36.906Z,2.50
2023-12-20T07:46:09.277Z,1.90
2023-12-20T07:48:38.314Z,1.83
2023-12-20T07:51:08.674Z,1.27
2023-12-20T07:53:38.697Z,2.10
2023-12-20T07:56:17.407Z,2.53
2023-12-20T07:58:52.109Z,2.20
2023-12-20T08:01:23.121Z,1.87
2023-12-20T08:03:53.077Z,1.77
2023-12-20T08:06:22.023Z,2.10
2023-12-20T08:08:58.393Z,1.70
2023-12-20T08:11:30.821Z,1.97
2023-12-20T08:13:59.407Z,1.20
2023-12-20T08:16:28.170Z,1.67
2023-12-20T08:18:56.952Z,1.27
2023-12-20T08:21:25.578Z,1.50
2023-12-20T08:23:55.614Z,2.50
2023-12-20T08:26:25.477Z,2.03
2023-12-20T08:28:54.679Z,1.53
2023-12-20T08:31:23.441Z,1.73
2023-12-20T08:33:54.117Z,1.37
2023-12-20T08:36:24.654Z,1.67
2023-12-20T08:38:54.794Z,1.90
2023-12-20T08:41:23.284Z,1.00
2023-12-20T08:43:52.096Z,1.13
2023-12-20T08:46:20.735Z,1.40
2023-12-20T08:48:49.609Z,2.97
2023-12-20T08:51:18.294Z,2.17
2023-12-20T08:53:49.040Z,2.03
2023-12-20T08:56:19.054Z,2.00
2023-12-20T08:58:47.918Z,1.67
2023-12-20T09:01:16.793Z,1.27
2023-12-20T09:03:45.575Z,1.70
2023-12-20T09:06:14.484Z,2.07
2023-12-20T09:08:43.060Z,1.63
2023-12-20T09:11:11.700Z,1.37
2023-12-20T09:13:41.986Z,1.60
2023-12-20T09:16:10.789Z,1.73
2023-12-20T09:18:39.367Z,1.80
2023-12-20T09:21:07.922Z,1.90
2023-12-20T09:23:37.726Z,1.30
2023-12-20T09:26:06.474Z,1.00
2023-12-20T09:28:38.064Z,1.77
2023-12-20T09:31:08.788Z,1.60
2023-12-20T09:33:37.512Z,1.93
2023-12-20T09:36:06.641Z,2.30
2023-12-20T09:38:35.763Z,1.13
2023-12-20T09:41:05.719Z,1.40
2023-12-20T09:43:37.794Z,1.67
2023-12-20T09:46:12.583Z,1.73
2023-12-20T09:48:42.461Z,1.60
2023-12-20T09:51:10.944Z,1.57
2023-12-20T09:53:41.507Z,1.53
2023-12-20T09:56:10.266Z,1.03
2023-12-20T09:58:40.443Z,2.23
2023-12-20T10:01:12.148Z,1.30
2023-12-20T10:03:43.202Z,1.13
2023-12-20T10:06:12.758Z,2.10
2023-12-20T10:08:41.598Z,1.97
2023-12-20T10:11:10.222Z,1.20
2023-12-20T10:13:42.779Z,1.50
2023-12-20T10:16:12.860Z,1.80
2023-12-20T10:18:42.105Z,1.00
2023-12-20T10:21:11.190Z,1.03
2023-12-20T10:23:44.321Z,1.20
2023-12-20T10:26:21.202Z,2.13
2023-12-20T10:28:57.616Z,1.77
2023-12-20T10:31:37.913Z,1.60
2023-12-20T10:34:07.321Z,1.10
2023-12-20T10:36:47.004Z,1.90
2023-12-20T10:39:17.844Z,1.27
2023-12-20T10:41:47.965Z,1.37
2023-12-20T10:44:17.406Z,1.53
2023-12-20T10:46:52.243Z,1.47
2023-12-20T10:49:22.196Z,1.70
2023-12-20T10:51:51.233Z,2.13
2023-12-20T10:54:20.113Z,2.40
2023-12-20T10:56:48.667Z,1.60
2023-12-20T10:59:23.178Z,1.57
2023-12-20T11:01:57.212Z,1.83
2023-12-20T11:04:31.119Z,1.37
2023-12-20T11:07:18.690Z,1.23
2023-12-20T11:09:57.247Z,1.63
2023-12-20T11:12:35.090Z,1.23
2023-12-20T11:15:05.722Z,1.77
2023-12-20T11:17:36.124Z,1.10
2023-12-20T11:20:11.887Z,0.80
2023-12-20T11:22:45.240Z,1.20
2023-12-20T11:25:14.490Z,1.77
2023-12-20T11:27:45.744Z,1.23
2023-12-20T11:30:18.214Z,2.00
2023-12-20T11:32:49.525Z,1.30
2023-12-20T11:35:22.977Z,1.43
2023-12-20T11:37:53.224Z,2.33
2023-12-20T11:40:23.130Z,1.53
2023-12-20T11:42:53.733Z,2.17
2023-12-20T11:45:24.223Z,2.07
2023-12-20T11:47:55.554Z,1.50
2023-12-20T11:50:25.783Z,1.67
2023-12-20T11:52:56.360Z,1.80
2023-12-20T11:55:25.920Z,2.07
2023-12-20T11:57:55.233Z,1.77
2023-12-20T12:00:23.975Z,1.63
2023-12-20T12:03:00.784Z,1.23
2023-12-20T12:05:29.720Z,2.00
2023-12-20T12:07:58.687Z,2.33
2023-12-20T12:10:27.278Z,1.50
2023-12-20T12:12:56.758Z,1.60
2023-12-20T12:15:25.792Z,1.77
2023-12-20T12:17:57.162Z,1.77
2023-12-20T12:20:27.624Z,1.57
2023-12-20T12:23:02.518Z,1.97
2023-12-20T12:25:32.658Z,2.17
2023-12-20T12:28:02.555Z,1.57
2023-12-20T12:30:35.584Z,1.57
2023-12-20T12:33:08.246Z,1.33
2023-12-20T12:35:38.905Z,1.40
2023-12-20T12:38:09.843Z,1.40
2023-12-20T12:40:38.784Z,1.53
2023-12-20T12:43:08.059Z,1.43
2023-12-20T12:45:37.247Z,1.47
2023-12-20T12:48:06.295Z,1.53
2023-12-20T12:50:35.343Z,2.10
2023-12-20T12:53:05.420Z,1.87
2023-12-20T12:55:34.042Z,1.83
2023-12-20T12:58:03.227Z,2.00
2023-12-20T13:00:34.985Z,1.50
2023-12-20T13:03:03.561Z,1.97
2023-12-20T13:05:35.549Z,1.50
2023-12-20T13:08:08.720Z,1.37
2023-12-20T13:10:37.331Z,1.43
2023-12-20T13:13:06.238Z,0.87
2023-12-20T13:15:35.093Z,1.37
2023-12-20T13:18:03.693Z,1.13
2023-12-20T13:20:32.304Z,1.57
2023-12-20T13:23:00.820Z,1.10
2023-12-20T13:25:30.865Z,1.33
2023-12-20T13:28:00.628Z,1.57
2023-12-20T13:30:29.272Z,1.33
2023-12-20T13:33:00.663Z,1.47
2023-12-20T13:35:29.419Z,1.57
2023-12-20T13:37:58.769Z,1.40
2023-12-20T13:40:27.585Z,1.63
2023-12-20T13:42:57.582Z,2.10
2023-12-20T13:45:27.264Z,1.60
2023-12-20T13:47:55.933Z,1.70
2023-12-20T13:50:25.147Z,1.50
2023-12-20T13:52:53.874Z,1.27
2023-12-20T13:55:26.188Z,1.47
2023-12-20T13:57:56.569Z,2.10
2023-12-20T14:00:25.375Z,2.23
2023-12-20T14:02:53.995Z,1.30
2023-12-20T14:05:27.222Z,2.57
2023-12-20T14:07:59.601Z,1.70
2023-12-20T14:10:28.543Z,1.63
2023-12-20T14:12:58.720Z,1.60
2023-12-20T14:15:27.380Z,1.77
2023-12-20T14:17:56.897Z,1.60
2023-12-20T14:20:25.794Z,1.20
2023-12-20T14:22:54.345Z,2.37
2023-12-20T14:25:24.883Z,2.17
2023-12-20T14:27:54.953Z,2.23
2023-12-20T14:30:25.445Z,2.93
2023-12-20T14:32:54.052Z,2.33
2023-12-20T14:35:22.841Z,2.17
2023-12-20T14:37:51.651Z,2.23
2023-12-20T14:40:21.159Z,1.63
2023-12-20T14:42:50.098Z,1.60
2023-12-20T14:45:19.707Z,1.50
2023-12-20T14:47:50.656Z,1.57
2023-12-20T14:50:20.355Z,0.93
2023-12-20T14:52:49.927Z,1.40
2023-12-20T14:55:19.407Z,1.00
2023-12-20T14:57:50.802Z,1.00
2023-12-20T15:00:20.285Z,0.90
2023-12-20T15:02:51.329Z,1.07
2023-12-20T15:05:20.336Z,0.87
2023-12-20T15:07:49.583Z,0.80
2023-12-20T15:10:19.222Z,1.47
2023-12-20T15:12:47.919Z,0.50
2023-12-20T15:15:16.959Z,0.97
2023-12-20T15:17:46.398Z,1.00
2023-12-20T15:20:16.660Z,0.60
2023-12-20T15:22:46.904Z,0.90
2023-12-20T15:25:22.244Z,1.03
2023-12-20T15:27:54.358Z,1.20
2023-12-20T15:30:25.233Z,0.90
2023-12-20T15:32:54.207Z,1.13
2023-12-20T15:35:24.305Z,0.93
2023-12-20T15:37:53.015Z,1.13
2023-12-20T15:40:21.857Z,0.93
2023-12-20T15:42:50.414Z,0.53
2023-12-20T15:45:19.518Z,0.70
2023-12-20T15:47:48.334Z,0.80
2023-12-20T15:50:17.952Z,1.00
2023-12-20T15:52:48.348Z,0.70
2023-12-20T15:55:17.150Z,1.00
2023-12-20T15:57:52.269Z,0.90
2023-12-20T16:00:23.765Z,1.10
2023-12-20T16:02:52.284Z,1.97
2023-12-20T16:05:21.283Z,1.07
2023-12-20T16:07:51.711Z,1.60
2023-12-20T16:10:20.756Z,0.70
2023-12-20T16:12:49.938Z,1.67
2023-12-20T16:15:18.983Z,1.00
2023-12-20T16:17:49.469Z,0.87
2023-12-20T16:20:18.448Z,1.43
2023-12-20T16:22:47.001Z,1.20
2023-12-20T16:25:17.289Z,1.20
2023-12-20T16:27:47.833Z,0.93
2023-12-20T16:30:17.267Z,0.97
2023-12-20T16:32:46.228Z,1.43
2023-12-20T16:35:15.005Z,1.43
2023-12-20T16:37:43.919Z,1.00
2023-12-20T16:40:13.400Z,1.20
2023-12-20T16:42:43.451Z,1.60
2023-12-20T16:45:12.199Z,1.33
2023-12-20T16:47:40.901Z,1.30
2023-12-20T16:50:10.763Z,1.57
2023-12-20T16:52:39.603Z,1.00
2023-12-20T16:55:10.702Z,0.83
2023-12-20T16:57:39.551Z,1.23
2023-12-20T17:00:10.598Z,1.13
2023-12-20T17:02:40.541Z,1.00
2023-12-20T17:05:11.494Z,1.43
2023-12-20T17:07:40.184Z,1.40
2023-12-20T17:10:10.025Z,1.63
2023-12-20T17:12:38.693Z,1.20
2023-12-20T17:15:09.355Z,0.83
2023-12-20T17:17:38.111Z,0.90
2023-12-20T17:20:08.509Z,1.03
2023-12-20T17:22:37.234Z,1.13
2023-12-20T17:25:07.338Z,1.33
2023-12-20T17:27:36.103Z,1.20
2023-12-20T17:30:05.340Z,1.57
2023-12-20T17:32:38.266Z,1.33
2023-12-20T17:35:07.685Z,1.30
2023-12-20T17:37:36.434Z,1.10
2023-12-20T17:40:05.241Z,1.20
2023-12-20T17:42:33.728Z,2.17
2023-12-20T17:45:02.318Z,1.17
2023-12-20T17:47:30.929Z,1.07
2023-12-20T17:50:01.006Z,1.67
2023-12-20T17:52:29.657Z,1.70
2023-12-20T17:54:58.250Z,1.27
2023-12-20T17:57:26.860Z,1.70
2023-12-20T17:59:55.448Z,1.60
2023-12-20T18:02:24.398Z,1.70
2023-12-20T18:04:53.013Z,1.00
2023-12-20T18:07:22.907Z,1.90
2023-12-20T18:09:51.710Z,1.90
2023-12-20T18:12:20.657Z,1.90
2023-12-20T18:14:49.777Z,2.00
2023-12-20T18:17:18.396Z,1.20
2023-12-20T18:19:47.061Z,1.83
2023-12-20T18:22:15.768Z,1.70
2023-12-20T18:24:45.811Z,1.60
2023-12-20T18:27:14.341Z,1.80
2023-12-20T18:29:43.267Z,1.77
2023-12-20T18:32:12.042Z,1.87
2023-12-20T18:34:40.664Z,1.30
2023-12-20T18:37:11.759Z,2.87
2023-12-20T18:39:40.461Z,1.80
2023-12-20T18:42:10.557Z,2.20
2023-12-20T18:44:40.021Z,2.20
2023-12-20T18:47:08.754Z,1.43
2023-12-20T18:49:37.611Z,1.83
2023-12-20T18:52:07.193Z,1.87
2023-12-20T18:54:37.053Z,1.70
2023-12-20T18:57:08.727Z,2.00
2023-12-20T18:59:38.742Z,1.97
2023-12-20T19:02:09.476Z,2.20
2023-12-20T19:04:38.245Z,2.03
2023-12-20T19:07:07.209Z,1.93
2023-12-20T19:09:35.902Z,2.43
2023-12-20T19:12:04.687Z,1.67
2023-12-20T19:14:34.756Z,2.30
2023-12-20T19:17:05.361Z,2.43
2023-12-20T19:19:34.151Z,7.33
2023-12-20T19:22:02.762Z,4.20
2023-12-20T19:24:33.377Z,1.67
2023-12-20T19:27:02.441Z,1.70
2023-12-20T19:29:31.039Z,2.97
2023-12-20T19:31:59.650Z,3.80
2023-12-20T19:34:29.869Z,4.20
2023-12-20T19:36:57.603Z,5.07
2023-12-20T19:39:26.226Z,5.93
2023-12-20T19:41:55.422Z,2.30
2023-12-20T19:44:23.988Z,5.53
2023-12-20T19:46:52.610Z,2.67
2023-12-20T19:49:22.172Z,6.40
2023-12-20T19:51:52.159Z,3.60
2023-12-20T19:54:20.743Z,5.83
2023-12-20T19:56:49.254Z,5.23
2023-12-20T19:59:17.821Z,2.27
2023-12-20T20:04:34.696Z,5.17
2023-12-20T20:07:10.477Z,7.83
2023-12-20T20:09:39.247Z,7.27
2023-12-20T20:12:08.959Z,5.40
2023-12-20T20:14:37.487Z,3.87
2023-12-20T20:17:08.680Z,2.70
2023-12-20T20:19:38.456Z,6.30
2023-12-20T20:22:08.679Z,10.80
2023-12-20T20:24:37.410Z,3.67
2023-12-20T20:27:06.269Z,2.67
2023-12-20T20:29:34.816Z,4.57
2023-12-20T20:32:03.425Z,5.57
2023-12-20T20:34:31.927Z,5.03
2023-12-20T20:37:01.022Z,4.77
2023-12-20T20:39:30.998Z,10.30
2023-12-20T20:41:59.722Z,4.53
2023-12-20T20:44:28.262Z,11.43
2023-12-20T20:46:57.209Z,13.23
2023-12-20T20:49:26.009Z,4.13
2023-12-20T20:51:54.753Z,8.40
2023-12-20T20:54:23.329Z,7.20
2023-12-20T20:56:53.742Z,9.03
2023-12-20T20:59:22.331Z,5.07
2023-12-20T21:01:50.863Z,8.03
2023-12-20T21:04:19.425Z,13.30
2023-12-20T21:06:49.492Z,6.63
2023-12-20T21:09:18.041Z,1.83
2023-12-20T21:11:46.617Z,3.20
2023-12-20T21:14:16.880Z,4.27
2023-12-20T21:16:45.649Z,2.30
2023-12-20T21:19:14.311Z,3.77
2023-12-20T21:21:43.003Z,6.53
2023-12-20T21:24:13.948Z,2.37
2023-12-20T21:26:43.184Z,3.53
2023-12-20T21:29:16.156Z,3.47
2023-12-20T21:31:44.709Z,1.70
2023-12-20T21:34:14.155Z,6.57
2023-12-20T21:36:43.874Z,3.10
2023-12-20T21:39:12.777Z,1.43
2023-12-20T21:41:41.305Z,10.53
2023-12-20T21:44:10.066Z,4.37
2023-12-20T21:46:41.564Z,2.17
2023-12-20T21:49:10.313Z,3.50
2023-12-20T21:51:38.948Z,3.07
2023-12-20T21:54:10.650Z,5.90
2023-12-20T21:56:39.234Z,2.70
2023-12-20T21:59:07.840Z,2.60
2023-12-20T22:01:42.679Z,2.13
2023-12-20T22:04:11.990Z,2.50
2023-12-20T22:06:40.630Z,2.67
2023-12-20T22:09:10.297Z,1.63
2023-12-20T22:11:40.433Z,1.23
2023-12-20T22:14:09.449Z,2.50
2023-12-20T22:16:42.058Z,2.40
2023-12-20T22:19:10.827Z,1.97
2023-12-20T22:21:39.770Z,1.53
2023-12-20T22:24:09.233Z,1.20
2023-12-20T22:26:37.849Z,1.50
2023-12-20T22:29:06.439Z,1.37
2023-12-20T22:31:35.028Z,1.23
2023-12-20T22:34:05.081Z,1.10
2023-12-20T22:36:34.000Z,0.63
2023-12-20T22:39:02.682Z,0.93
2023-12-20T22:41:31.241Z,1.00
2023-12-20T22:43:59.773Z,0.80
2023-12-20T22:46:31.105Z,1.10
2023-12-20T22:49:00.042Z,1.33
2023-12-20T22:51:33.391Z,0.83
2023-12-20T22:54:02.155Z,1.20
2023-12-20T22:56:30.732Z,1.37
2023-12-20T22:58:59.426Z,1.30
2023-12-20T23:01:28.091Z,1.50
2023-12-20T23:03:56.771Z,1.53
2023-12-20T23:06:25.481Z,1.90
2023-12-20T23:08:55.778Z,1.60
2023-12-20T23:11:24.334Z,0.83
2023-12-20T23:13:56.558Z,1.23
2023-12-20T23:16:27.319Z,1.30
2023-12-20T23:18:56.086Z,1.23
2023-12-20T23:21:24.847Z,1.27
2023-12-20T23:23:55.078Z,1.00
2023-12-20T23:26:23.802Z,1.10
2023-12-20T23:28:52.746Z,0.80
2023-12-20T23:31:25.093Z,1.37
2023-12-20T23:33:54.199Z,0.83
2023-12-20T23:36:22.882Z,1.27
2023-12-20T23:38:51.538Z,1.20
2023-12-20T23:41:21.647Z,0.80
2023-12-20T23:43:50.298Z,0.97
2023-12-20T23:46:18.968Z,1.03
2023-12-20T23:48:48.087Z,1.40
2023-12-20T23:51:16.912Z,1.27
2023-12-20T23:53:45.587Z,1.03
2023-12-20T23:56:23.331Z,0.97
2023-12-20T23:58:57.757Z,1.67
